PWSweather.com
Personal Weather Stations
Station Observations
BLACKWELL
Blackwell, AlfretonGB DE55

BlackwellAlfretonGB DE55

Lat: 53.12076, Lon: -1.354978

Elevation: 410

Station Type: Vantage Pro

High Low Average
Temperature 48.0°F8.9°C 40.3°F4.6°C 44.1°F6.7°C
Dew Point 39.7°F4.3°C 34.3°F1.3°C 37.5°F3.1°C
Winds 8.0 mph 12.9 kmh Calm Calm 5.0 mph SW8.0 kmh SW
Wind Gusts 18.0 mph29.0 kmh 4.0 mph6.4 kmh 12.0 mph19.3 kmh
Humidity 90% 67% 78%
Pressure 29.48 in998.3 mb 29.14 in986.8 mb -
Precipitation 0.01 in0.3 mm - -
Hour Temp Dew Point Humidity Winds Wind Gusts Pressure Precip Precip Rate Daily Precip Total
12:28 AM 41.5°F5.3°C 37.4°F3.0°C 85% 5.0 mph WSW8.0 kmh WSW 12.0 mph19.3 kmh 29.16 in987.5 mb 0.00 in0.0 mm 0.00 in0.0 mm 0.00 in0.0 mm
01:28 AM 42.1°F5.6°C 36.7°F2.6°C 81% 7.0 mph WSW11.3 kmh WSW 14.0 mph22.5 kmh 29.16 in987.5 mb 0.00 in0.0 mm 0.00 in0.0 mm 0.00 in0.0 mm
02:28 AM 42.3°F5.7°C 34.9°F1.6°C 75% 5.0 mph SW8.0 kmh SW 14.0 mph22.5 kmh 29.17 in987.8 mb 0.00 in0.0 mm 0.00 in0.0 mm 0.00 in0.0 mm
03:28 AM 42.4°F5.8°C 34.9°F1.6°C 74% 7.0 mph WSW11.3 kmh WSW 15.0 mph24.1 kmh 29.15 in987.1 mb 0.00 in0.0 mm 0.00 in0.0 mm 0.00 in0.0 mm
04:28 AM 43.5°F6.4°C 34.3°F1.3°C 70% 6.0 mph WSW9.7 kmh WSW 12.0 mph19.3 kmh 29.14 in986.8 mb 0.01 in0.3 mm 0.00 in0.0 mm 0.01 in0.3 mm
05:28 AM 44.1°F6.7°C 35.2°F1.8°C 71% 8.0 mph SW12.9 kmh SW 18.0 mph29.0 kmh 29.16 in987.5 mb 0.00 in0.0 mm 0.00 in0.0 mm 0.01 in0.3 mm
06:28 AM 44.2°F6.8°C 35.8°F2.1°C 72% 7.0 mph SW11.3 kmh SW 15.0 mph24.1 kmh 29.18 in988.1 mb 0.00 in0.0 mm 0.00 in0.0 mm 0.01 in0.3 mm
07:28 AM 44.4°F6.9°C 36.3°F2.4°C 73% 6.0 mph SW9.7 kmh SW 18.0 mph29.0 kmh 29.22 in989.5 mb 0.00 in0.0 mm 0.00 in0.0 mm 0.01 in0.3 mm
08:28 AM 43.9°F6.6°C 37.0°F2.8°C 77% 6.0 mph SW9.7 kmh SW 14.0 mph22.5 kmh 29.26 in990.9 mb 0.00 in0.0 mm 0.00 in0.0 mm 0.01 in0.3 mm
09:28 AM 43.5°F6.4°C 38.1°F3.4°C 81% 7.0 mph SW11.3 kmh SW 15.0 mph24.1 kmh 29.30 in992.2 mb 0.00 in0.0 mm 0.00 in0.0 mm 0.01 in0.3 mm
10:28 AM 45.5°F7.5°C 39.4°F4.1°C 79% 6.0 mph SW9.7 kmh SW 18.0 mph29.0 kmh 29.34 in993.6 mb 0.00 in0.0 mm 0.00 in0.0 mm 0.01 in0.3 mm
11:28 AM 47.1°F8.4°C 39.7°F4.3°C 75% 6.0 mph SW9.7 kmh SW 14.0 mph22.5 kmh 29.39 in995.3 mb 0.00 in0.0 mm 0.00 in0.0 mm 0.01 in0.3 mm
12:28 PM 48.0°F8.9°C 39.4°F4.1°C 72% 5.0 mph SW8.0 kmh SW 16.0 mph25.7 kmh 29.43 in996.6 mb 0.00 in0.0 mm 0.00 in0.0 mm 0.01 in0.3 mm
01:28 PM 47.7°F8.7°C 38.7°F3.7°C 71% 4.0 mph SW6.4 kmh SW 10.0 mph16.1 kmh 29.45 in997.3 mb 0.00 in0.0 mm 0.00 in0.0 mm 0.01 in0.3 mm
02:28 PM 48.0°F8.9°C 37.6°F3.1°C 67% 5.0 mph SW8.0 kmh SW 12.0 mph19.3 kmh 29.46 in997.6 mb 0.00 in0.0 mm 0.00 in0.0 mm 0.01 in0.3 mm
03:28 PM 47.7°F8.7°C 38.7°F3.7°C 71% 4.0 mph SW6.4 kmh SW 8.0 mph12.9 kmh 29.47 in998.0 mb 0.00 in0.0 mm 0.00 in0.0 mm 0.01 in0.3 mm
04:28 PM 44.4°F6.9°C 39.4°F4.1°C 82% 2.0 mph SW3.2 kmh SW 7.0 mph11.3 kmh 29.48 in998.3 mb 0.00 in0.0 mm 0.00 in0.0 mm 0.01 in0.3 mm
05:28 PM 45.0°F7.2°C 39.6°F4.2°C 81% 3.0 mph WSW4.8 kmh WSW 7.0 mph11.3 kmh 29.48 in998.3 mb 0.00 in0.0 mm 0.00 in0.0 mm 0.01 in0.3 mm
06:28 PM 44.8°F7.1°C 39.4°F4.1°C 81% 4.0 mph SW6.4 kmh SW 13.0 mph20.9 kmh 29.47 in998.0 mb 0.00 in0.0 mm 0.00 in0.0 mm 0.01 in0.3 mm
07:28 PM 43.9°F6.6°C 38.1°F3.4°C 80% 3.0 mph WSW4.8 kmh WSW 10.0 mph16.1 kmh 29.47 in998.0 mb 0.00 in0.0 mm 0.00 in0.0 mm 0.01 in0.3 mm
08:28 PM 42.3°F5.7°C 37.6°F3.1°C 83% 3.0 mph WSW4.8 kmh WSW 6.0 mph9.7 kmh 29.46 in997.6 mb 0.00 in0.0 mm 0.00 in0.0 mm 0.01 in0.3 mm
09:28 PM 41.4°F5.2°C 37.2°F2.9°C 85% Calm Calm 4.0 mph6.4 kmh 29.44 in997.0 mb 0.00 in0.0 mm 0.00 in0.0 mm 0.01 in0.3 mm
10:29 PM 40.8°F4.9°C 37.2°F2.9°C 87% 2.0 mph WSW3.2 kmh WSW 7.0 mph11.3 kmh 29.41 in995.9 mb 0.00 in0.0 mm 0.00 in0.0 mm 0.01 in0.3 mm
11:28 PM 40.3°F4.6°C 37.6°F3.1°C 90% 1.0 mph WSW1.6 kmh WSW 4.0 mph6.4 kmh 29.38 in994.9 mb 0.00 in0.0 mm 0.00 in0.0 mm 0.01 in0.3 mm